createdAt,value
2018-07-16T00:00:50.210Z,74.65
2018-07-16T00:03:18.583Z,74.17
2018-07-16T00:05:46.903Z,75.38
2018-07-16T00:08:15.296Z,76.14
2018-07-16T00:10:43.735Z,76.28
2018-07-16T00:13:12.083Z,76.50
2018-07-16T00:15:40.461Z,76.52
2018-07-16T00:18:08.811Z,75.81
2018-07-16T00:20:37.224Z,76.17
2018-07-16T00:23:05.758Z,76.38
2018-07-16T00:25:34.163Z,77.16
2018-07-16T00:28:02.524Z,78.10
2018-07-16T00:30:30.926Z,78.13
2018-07-16T00:32:59.256Z,77.62
2018-07-16T00:35:27.701Z,77.30
2018-07-16T00:37:56.029Z,76.40
2018-07-16T00:40:24.432Z,76.06
2018-07-16T00:42:52.808Z,74.79
2018-07-16T00:45:21.149Z,75.50
2018-07-16T00:47:49.468Z,78.57
2018-07-16T00:50:17.862Z,78.89
2018-07-16T00:52:46.180Z,77.97
2018-07-16T00:55:14.564Z,77.82
2018-07-16T00:57:42.877Z,77.45
2018-07-16T01:00:11.404Z,77.04
2018-07-16T01:02:39.753Z,77.81
2018-07-16T01:05:08.095Z,78.12
2018-07-16T01:07:36.426Z,78.58
2018-07-16T01:10:04.815Z,78.87
2018-07-16T01:12:33.200Z,78.35
2018-07-16T01:15:01.553Z,78.79
2018-07-16T01:17:29.936Z,79.11
2018-07-16T01:19:58.277Z,80.06
2018-07-16T01:22:26.713Z,79.69
2018-07-16T01:24:55.104Z,79.15
2018-07-16T01:27:23.477Z,79.78
2018-07-16T01:29:51.852Z,78.76
2018-07-16T01:32:20.177Z,79.13
2018-07-16T01:34:48.579Z,80.10
2018-07-16T01:37:16.914Z,80.42
2018-07-16T01:39:45.883Z,80.55
2018-07-16T01:42:14.232Z,80.56
2018-07-16T01:44:42.578Z,79.49
2018-07-16T01:47:11.205Z,78.43
2018-07-16T01:49:39.583Z,77.05
2018-07-16T01:52:07.992Z,77.30
2018-07-16T01:54:36.395Z,78.70
2018-07-16T01:57:04.769Z,80.08
2018-07-16T01:59:33.169Z,81.07
2018-07-16T02:02:01.557Z,81.16
2018-07-16T02:04:29.963Z,81.09
2018-07-16T02:06:58.332Z,81.44
2018-07-16T02:09:27.032Z,81.17
2018-07-16T02:11:55.396Z,81.13
2018-07-16T02:14:23.762Z,80.80
2018-07-16T02:16:52.151Z,80.70
2018-07-16T02:19:20.504Z,79.66
2018-07-16T02:21:48.863Z,80.41
2018-07-16T02:24:17.186Z,82.14
2018-07-16T02:26:45.562Z,83.09
2018-07-16T02:29:13.943Z,82.57
2018-07-16T02:31:42.342Z,82.93
2018-07-16T02:34:10.712Z,82.40
2018-07-16T02:36:39.075Z,81.96
2018-07-16T02:39:07.393Z,80.92
2018-07-16T02:41:35.766Z,80.29
2018-07-16T02:44:04.100Z,80.22
2018-07-16T02:46:32.487Z,80.53
2018-07-16T02:49:00.812Z,81.31
2018-07-16T02:51:29.179Z,81.91
2018-07-16T02:53:57.554Z,81.69
2018-07-16T02:56:26.134Z,82.49
2018-07-16T02:58:54.606Z,83.16
2018-07-16T03:01:23.024Z,82.14
2018-07-16T03:03:51.433Z,80.92
2018-07-16T03:06:19.812Z,80.31
2018-07-16T03:08:48.133Z,80.89
2018-07-16T03:11:16.545Z,81.34
2018-07-16T03:13:45.572Z,81.15
2018-07-16T03:16:13.976Z,81.41
2018-07-16T03:18:43.113Z,80.21
2018-07-16T03:21:11.536Z,81.03
2018-07-16T03:23:39.879Z,81.68
2018-07-16T03:26:08.238Z,81.07
2018-07-16T03:28:36.575Z,79.66
2018-07-16T03:31:04.968Z,79.80
2018-07-16T03:33:33.412Z,80.98
2018-07-16T03:36:01.876Z,81.49
2018-07-16T03:38:30.316Z,82.49
2018-07-16T03:40:58.763Z,83.23
2018-07-16T03:43:27.097Z,84.41
2018-07-16T03:45:55.436Z,83.20
2018-07-16T03:48:23.764Z,83.38
2018-07-16T03:50:52.181Z,81.75
2018-07-16T03:53:20.534Z,82.54
2018-07-16T03:55:48.991Z,82.16
2018-07-16T03:58:17.343Z,80.60
2018-07-16T04:00:45.717Z,79.81
2018-07-16T04:03:14.040Z,78.91
2018-07-16T04:05:42.398Z,79.48
2018-07-16T04:08:10.727Z,79.92
2018-07-16T04:10:39.054Z,80.57
2018-07-16T04:13:07.487Z,81.28
2018-07-16T04:15:35.840Z,80.69
2018-07-16T04:18:08.344Z,80.58
2018-07-16T04:20:36.654Z,81.01
2018-07-16T04:23:05.073Z,80.78
2018-07-16T04:25:33.423Z,80.39
2018-07-16T04:28:01.766Z,81.18
2018-07-16T04:30:30.091Z,80.52
2018-07-16T04:32:58.435Z,80.61
2018-07-16T04:35:26.834Z,79.23
2018-07-16T04:37:55.180Z,78.94
2018-07-16T04:40:23.547Z,78.70
2018-07-16T04:42:52.096Z,78.34
2018-07-16T04:45:20.521Z,78.19
2018-07-16T04:47:48.896Z,78.10
2018-07-16T04:50:17.336Z,77.45
2018-07-16T04:52:45.733Z,76.70
2018-07-16T04:55:14.060Z,76.67
2018-07-16T04:57:42.412Z,75.82
2018-07-16T05:00:10.748Z,75.31
2018-07-16T05:02:39.097Z,74.86
2018-07-16T05:05:07.416Z,74.64
2018-07-16T05:07:35.824Z,74.26
2018-07-16T05:10:04.176Z,73.61
2018-07-16T05:12:32.860Z,73.50
2018-07-16T05:15:01.199Z,72.84
2018-07-16T05:17:30.224Z,72.79
2018-07-16T05:19:58.728Z,71.93
2018-07-16T05:22:27.150Z,70.97
2018-07-16T05:24:55.578Z,70.37
2018-07-16T05:27:24.060Z,69.11
2018-07-16T05:29:52.409Z,68.36
2018-07-16T05:32:20.939Z,68.07
2018-07-16T05:34:50.524Z,67.79
2018-07-16T05:37:20.976Z,67.31
2018-07-16T05:39:54.306Z,66.63
2018-07-16T05:42:25.204Z,67.36
2018-07-16T05:45:13.632Z,67.18
2018-07-16T05:47:41.998Z,66.57
2018-07-16T05:50:10.541Z,67.81
2018-07-16T05:52:42.587Z,67.79
2018-07-16T05:55:12.679Z,65.98
2018-07-16T05:57:41.296Z,66.10
2018-07-16T06:00:10.093Z,66.08
2018-07-16T06:02:38.787Z,65.83
2018-07-16T06:05:08.155Z,65.45
2018-07-16T06:07:37.221Z,65.00
2018-07-16T06:10:07.165Z,64.89
2018-07-16T06:12:37.877Z,65.16
2018-07-16T06:15:12.190Z,64.48
2018-07-16T06:17:40.824Z,65.17
2018-07-16T06:20:10.812Z,64.53
2018-07-16T06:22:39.780Z,62.47
2018-07-16T06:25:08.822Z,63.28
2018-07-16T06:27:37.332Z,63.30
2018-07-16T06:30:05.948Z,63.16
2018-07-16T06:32:34.606Z,63.12
2018-07-16T06:35:03.347Z,62.47
2018-07-16T06:37:32.346Z,62.81
2018-07-16T06:40:01.083Z,62.24
2018-07-16T06:42:29.451Z,62.41
2018-07-16T06:44:57.988Z,62.50
2018-07-16T06:47:26.567Z,60.30
2018-07-16T06:49:55.214Z,61.16
2018-07-16T06:52:23.790Z,60.60
2018-07-16T06:54:52.369Z,60.69
2018-07-16T06:57:21.139Z,59.72
2018-07-16T06:59:49.765Z,60.22
2018-07-16T07:02:18.350Z,60.25
2018-07-16T07:04:46.950Z,59.96
2018-07-16T07:07:15.444Z,59.44
2018-07-16T07:09:43.962Z,59.78
2018-07-16T07:12:12.591Z,59.46
2018-07-16T07:14:41.235Z,59.42
2018-07-16T07:17:09.731Z,58.60
2018-07-16T07:19:38.407Z,58.63
2018-07-16T07:22:06.929Z,59.38
2018-07-16T07:24:35.461Z,58.58
2018-07-16T07:27:04.209Z,58.37
2018-07-16T07:29:32.963Z,57.75
2018-07-16T07:32:01.832Z,57.69
2018-07-16T07:34:30.400Z,58.10
2018-07-16T07:36:59.073Z,56.60
2018-07-16T07:39:27.688Z,56.67
2018-07-16T07:41:56.206Z,56.12
2018-07-16T07:44:24.794Z,56.25
2018-07-16T07:46:53.873Z,55.14
2018-07-16T07:49:22.431Z,56.84
2018-07-16T07:51:51.160Z,56.69
2018-07-16T07:54:20.013Z,57.09
2018-07-16T07:56:48.384Z,56.55
2018-07-16T07:59:16.904Z,56.12
2018-07-16T08:01:46.100Z,55.75
2018-07-16T08:04:14.641Z,54.40
2018-07-16T08:06:47.311Z,54.24
2018-07-16T08:09:15.978Z,53.26
2018-07-16T08:11:44.590Z,53.38
2018-07-16T08:14:19.398Z,53.65
2018-07-16T08:16:48.106Z,52.53
2018-07-16T08:19:17.073Z,53.65
2018-07-16T08:21:45.570Z,53.00
2018-07-16T08:24:14.151Z,52.30
2018-07-16T08:26:42.781Z,51.42
2018-07-16T08:29:11.402Z,51.42
2018-07-16T08:31:39.904Z,50.87
2018-07-16T08:34:08.572Z,51.78
2018-07-16T08:36:37.173Z,51.26
2018-07-16T08:39:06.540Z,51.61
2018-07-16T08:41:37.180Z,51.66
2018-07-16T08:44:05.809Z,51.73
2018-07-16T08:46:34.300Z,51.51
2018-07-16T08:49:02.859Z,50.28
2018-07-16T08:51:31.837Z,50.49
2018-07-16T08:54:00.567Z,49.71
2018-07-16T08:56:29.085Z,49.85
2018-07-16T08:58:59.219Z,49.09
2018-07-16T09:01:27.825Z,48.27
2018-07-16T09:03:56.551Z,49.92
2018-07-16T09:06:24.983Z,50.05
2018-07-16T09:08:53.781Z,49.22
2018-07-16T09:11:22.426Z,48.71
2018-07-16T09:13:51.215Z,47.72
2018-07-16T09:16:20.716Z,47.61
2018-07-16T09:18:49.386Z,47.64
2018-07-16T09:21:17.957Z,48.37
2018-07-16T09:23:46.708Z,47.26
2018-07-16T09:26:15.516Z,48.47
2018-07-16T09:28:45.156Z,47.63
2018-07-16T09:31:13.715Z,46.02
2018-07-16T09:33:42.642Z,45.50
2018-07-16T09:36:11.159Z,47.48
2018-07-16T09:38:39.646Z,47.25
2018-07-16T09:41:08.286Z,46.34
2018-07-16T09:43:37.053Z,46.37
2018-07-16T09:46:05.696Z,46.89
2018-07-16T09:48:34.391Z,46.03
2018-07-16T09:51:03.625Z,44.75
2018-07-16T09:53:32.201Z,44.16
2018-07-16T09:56:00.863Z,44.10
2018-07-16T09:58:29.409Z,43.95
2018-07-16T10:01:03.273Z,43.07
2018-07-16T10:03:32.266Z,42.23
2018-07-16T10:06:00.846Z,43.06
2018-07-16T10:08:30.399Z,44.30
2018-07-16T10:10:58.975Z,43.42
2018-07-16T10:13:27.668Z,42.95
2018-07-16T10:15:56.242Z,43.77
2018-07-16T10:18:24.884Z,44.89
2018-07-16T10:20:53.610Z,44.35
2018-07-16T10:23:22.204Z,44.09
2018-07-16T10:25:50.900Z,45.07
2018-07-16T10:28:19.655Z,44.72
2018-07-16T10:30:48.319Z,44.46
2018-07-16T10:33:16.849Z,45.99
2018-07-16T10:35:47.579Z,43.66
2018-07-16T10:38:16.253Z,44.07
2018-07-16T10:40:45.242Z,42.80
2018-07-16T10:43:14.404Z,43.05
2018-07-16T10:45:42.986Z,41.41
2018-07-16T10:48:11.508Z,41.48
2018-07-16T10:50:40.150Z,41.12
2018-07-16T10:53:08.765Z,41.22
2018-07-16T10:55:37.412Z,40.63
2018-07-16T10:58:06.209Z,40.23
2018-07-16T11:00:34.853Z,38.88
2018-07-16T11:03:03.963Z,39.42
2018-07-16T11:05:32.512Z,41.15
2018-07-16T11:08:01.033Z,41.74
2018-07-16T11:10:29.566Z,38.96
2018-07-16T11:12:58.155Z,39.07
2018-07-16T11:15:26.948Z,38.47
2018-07-16T11:17:55.822Z,39.65
2018-07-16T11:20:24.629Z,39.56
2018-07-16T11:22:53.582Z,38.88
2018-07-16T11:25:22.449Z,38.24
2018-07-16T11:27:51.264Z,39.40
2018-07-16T11:30:19.902Z,40.12
2018-07-16T11:32:48.513Z,39.83
2018-07-16T11:35:17.182Z,39.64
2018-07-16T11:37:45.743Z,40.79
2018-07-16T11:40:14.383Z,40.30
2018-07-16T11:42:42.948Z,40.17
2018-07-16T11:45:11.595Z,39.84
2018-07-16T11:47:40.100Z,40.28
2018-07-16T11:50:08.779Z,40.54
2018-07-16T11:52:37.352Z,40.58
2018-07-16T11:55:05.873Z,41.06
2018-07-16T11:57:34.464Z,40.52
2018-07-16T12:00:02.972Z,39.19
2018-07-16T12:02:31.519Z,37.53
2018-07-16T12:05:00.103Z,37.36
2018-07-16T12:07:28.723Z,37.60
2018-07-16T12:09:57.276Z,38.11
2018-07-16T12:12:26.024Z,38.95
2018-07-16T12:14:54.475Z,38.61
2018-07-16T12:17:23.103Z,37.51
2018-07-16T12:19:51.623Z,37.37
2018-07-16T12:22:20.155Z,36.15
2018-07-16T12:24:49.445Z,35.40
2018-07-16T12:27:18.138Z,36.54
2018-07-16T12:29:46.662Z,34.99
2018-07-16T12:32:15.421Z,34.60
2018-07-16T12:34:44.148Z,34.41
2018-07-16T12:37:12.716Z,34.03
2018-07-16T12:39:42.159Z,34.33
2018-07-16T12:42:10.572Z,35.34
2018-07-16T12:44:39.119Z,35.25
2018-07-16T12:47:07.577Z,35.27
2018-07-16T12:49:36.307Z,35.98
2018-07-16T12:52:04.747Z,33.35
2018-07-16T12:54:33.199Z,33.42
2018-07-16T12:57:01.717Z,33.77
2018-07-16T12:59:30.043Z,34.59
2018-07-16T13:01:58.430Z,33.79
2018-07-16T13:04:29.219Z,33.92
2018-07-16T13:06:59.866Z,34.05
2018-07-16T13:09:29.641Z,32.96
2018-07-16T13:11:59.615Z,30.72
2018-07-16T13:14:28.041Z,32.71
2018-07-16T13:16:56.684Z,33.29
2018-07-16T13:19:24.987Z,32.48
2018-07-16T13:21:53.370Z,31.95
2018-07-16T13:24:21.713Z,32.97
2018-07-16T13:26:50.088Z,32.63
2018-07-16T13:29:18.426Z,31.49
2018-07-16T13:31:47.075Z,31.65
2018-07-16T13:34:31.664Z,32.04
2018-07-16T13:37:01.888Z,31.77
2018-07-16T13:39:30.204Z,30.45
2018-07-16T13:42:06.669Z,31.09
2018-07-16T13:44:34.972Z,31.06
2018-07-16T13:47:03.325Z,31.55
2018-07-16T13:49:31.747Z,32.00
2018-07-16T13:52:00.160Z,31.91
2018-07-16T13:54:34.050Z,30.23
2018-07-16T13:57:03.260Z,32.70
2018-07-16T13:59:31.558Z,30.95
2018-07-16T14:02:00.190Z,31.62
2018-07-16T14:04:28.652Z,31.89
2018-07-16T14:06:57.077Z,31.62
2018-07-16T14:09:25.672Z,29.68
2018-07-16T14:11:54.305Z,30.07
2018-07-16T14:14:22.663Z,29.72
2018-07-16T14:16:51.142Z,30.87
2018-07-16T14:19:19.474Z,29.29
2018-07-16T14:21:48.102Z,28.79
2018-07-16T14:24:16.611Z,29.66
2018-07-16T14:26:45.168Z,29.57
2018-07-16T14:29:13.489Z,29.08
2018-07-16T14:31:41.792Z,30.07
2018-07-16T14:34:10.144Z,28.15
2018-07-16T14:36:38.430Z,31.42
2018-07-16T14:39:07.176Z,31.18
2018-07-16T14:41:35.799Z,31.61
2018-07-16T14:44:04.743Z,30.51
2018-07-16T14:46:33.295Z,31.92
2018-07-16T14:49:01.676Z,32.33
2018-07-16T14:51:30.026Z,32.47
2018-07-16T14:53:58.425Z,30.46
2018-07-16T14:56:26.775Z,30.74
2018-07-16T14:58:55.189Z,30.54
2018-07-16T15:01:23.589Z,31.45
2018-07-16T15:03:51.906Z,30.71
2018-07-16T15:06:20.201Z,29.47
2018-07-16T15:08:48.536Z,29.70
2018-07-16T15:11:16.853Z,28.55
2018-07-16T15:13:45.403Z,27.00
2018-07-16T15:16:13.766Z,27.92
2018-07-16T15:18:42.086Z,28.74
2018-07-16T15:21:10.717Z,29.27
2018-07-16T15:23:38.786Z,28.28
2018-07-16T15:26:07.305Z,28.35
2018-07-16T15:28:35.663Z,27.74
2018-07-16T15:31:04.004Z,27.71
2018-07-16T15:33:32.458Z,28.19
2018-07-16T15:36:00.871Z,26.79
2018-07-16T15:38:29.347Z,27.74
2018-07-16T15:40:57.777Z,26.82
2018-07-16T15:43:26.274Z,27.11
2018-07-16T15:45:54.800Z,27.61
2018-07-16T15:48:24.134Z,29.05
2018-07-16T15:50:52.478Z,29.52
2018-07-16T15:53:20.819Z,28.96
2018-07-16T15:55:49.203Z,29.97
2018-07-16T15:58:17.638Z,30.27
2018-07-16T16:00:46.004Z,30.87
2018-07-16T16:03:14.609Z,31.75
2018-07-16T16:05:42.947Z,31.62
2018-07-16T16:08:11.290Z,31.27
2018-07-16T16:10:39.674Z,31.00
2018-07-16T16:13:08.108Z,30.50
2018-07-16T16:15:36.616Z,32.28
2018-07-16T16:18:05.729Z,31.63
2018-07-16T16:20:34.172Z,33.70
2018-07-16T16:23:03.191Z,33.68
2018-07-16T16:25:31.671Z,35.03
2018-07-16T16:27:59.994Z,33.85
2018-07-16T16:30:28.385Z,33.51
2018-07-16T16:32:56.787Z,34.13
2018-07-16T16:35:25.223Z,32.88
2018-07-16T16:37:53.692Z,33.50
2018-07-16T16:40:22.131Z,35.11
2018-07-16T16:42:50.696Z,33.31
2018-07-16T16:45:20.394Z,34.07
2018-07-16T16:47:49.406Z,33.19
2018-07-16T16:50:17.822Z,32.71
2018-07-16T16:52:46.243Z,34.48
2018-07-16T16:55:14.735Z,32.73
2018-07-16T16:57:43.021Z,34.59
2018-07-16T17:00:11.413Z,33.15
2018-07-16T17:02:39.836Z,33.89
2018-07-16T17:05:08.263Z,33.67
2018-07-16T17:07:36.848Z,34.33
2018-07-16T17:10:06.618Z,35.10
2018-07-16T17:12:36.165Z,34.22
2018-07-16T17:15:04.768Z,35.00
2018-07-16T17:17:33.188Z,36.08
2018-07-16T17:20:01.589Z,36.11
2018-07-16T17:22:33.013Z,35.73
2018-07-16T17:25:02.418Z,34.85
2018-07-16T17:27:30.779Z,36.48
2018-07-16T17:29:59.135Z,35.72
2018-07-16T17:32:27.528Z,35.30
2018-07-16T17:34:55.988Z,35.90
2018-07-16T17:37:24.357Z,35.28
2018-07-16T17:39:52.722Z,35.71
2018-07-16T17:42:21.031Z,34.49
2018-07-16T17:44:49.587Z,35.51
2018-07-16T17:47:20.402Z,35.20
2018-07-16T17:49:49.450Z,35.27
2018-07-16T17:52:17.810Z,35.20
2018-07-16T17:54:46.139Z,35.12
2018-07-16T17:57:15.199Z,35.48
2018-07-16T18:00:03.279Z,35.20
2018-07-16T18:02:31.863Z,35.56
2018-07-16T18:05:00.230Z,35.78
2018-07-16T18:07:28.575Z,35.45
2018-07-16T18:09:56.921Z,36.28
2018-07-16T18:12:25.354Z,35.17
2018-07-16T18:14:53.714Z,35.22
2018-07-16T18:17:22.071Z,36.69
2018-07-16T18:19:51.426Z,40.11
2018-07-16T18:22:19.824Z,41.23
2018-07-16T18:24:48.284Z,41.82
2018-07-16T18:27:17.393Z,41.95
2018-07-16T18:29:45.954Z,43.25
2018-07-16T18:32:14.714Z,43.38
2018-07-16T18:34:44.098Z,43.98
2018-07-16T18:37:12.593Z,44.31
2018-07-16T18:39:42.530Z,43.90
2018-07-16T18:42:10.947Z,43.98
2018-07-16T18:44:40.713Z,45.17
2018-07-16T18:47:09.701Z,46.07
2018-07-16T18:49:38.256Z,45.34
2018-07-16T18:52:06.701Z,45.50
2018-07-16T18:54:35.108Z,44.79
2018-07-16T18:57:04.824Z,45.32
2018-07-16T18:59:33.171Z,45.53
2018-07-16T19:02:01.525Z,45.89
2018-07-16T19:04:32.429Z,46.84
2018-07-16T19:07:03.047Z,46.77
2018-07-16T19:09:31.654Z,47.07
2018-07-16T19:12:00.254Z,47.88
2018-07-16T19:14:29.033Z,48.87
2018-07-16T19:16:58.015Z,48.99
2018-07-16T19:19:26.375Z,50.97
2018-07-16T19:21:54.797Z,50.98
2018-07-16T19:24:23.191Z,54.00
2018-07-16T19:27:07.595Z,55.62
2018-07-16T19:32:18.862Z,56.88
2018-07-16T19:34:47.352Z,55.28
2018-07-16T19:37:16.793Z,56.42
2018-07-16T19:39:56.390Z,56.42
2018-07-16T19:42:25.853Z,56.34
2018-07-16T19:44:54.938Z,57.39
2018-07-16T19:47:23.546Z,56.66
2018-07-16T19:50:03.373Z,57.85
2018-07-16T19:52:46.266Z,58.59
2018-07-16T19:55:23.870Z,57.66
2018-07-16T19:57:57.773Z,59.06
2018-07-16T20:03:16.781Z,57.93
2018-07-16T20:05:52.795Z,58.50
2018-07-16T20:08:32.044Z,59.62
2018-07-16T20:11:00.584Z,59.95
2018-07-16T20:14:07.272Z,59.61
2018-07-16T20:16:43.533Z,61.33
2018-07-16T20:19:12.718Z,60.87
2018-07-16T20:21:42.521Z,61.64
2018-07-16T20:24:10.839Z,61.90
2018-07-16T20:26:40.914Z,62.06
2018-07-16T20:29:09.271Z,61.92
2018-07-16T20:31:37.629Z,61.86
2018-07-16T20:34:06.031Z,62.51
2018-07-16T20:36:34.767Z,62.38
2018-07-16T20:39:04.328Z,62.75
2018-07-16T20:41:34.695Z,62.42
2018-07-16T20:44:03.280Z,62.30
2018-07-16T20:46:31.719Z,61.48
2018-07-16T20:49:00.320Z,62.89
2018-07-16T20:51:28.685Z,62.58
2018-07-16T20:53:58.114Z,62.59
2018-07-16T20:56:27.676Z,61.92
2018-07-16T20:58:56.213Z,62.34
2018-07-16T21:01:25.126Z,63.05
2018-07-16T21:03:53.475Z,66.68
2018-07-16T21:06:21.945Z,66.52
2018-07-16T21:08:50.361Z,66.93
2018-07-16T21:11:18.731Z,66.08
2018-07-16T21:13:47.461Z,64.35
2018-07-16T21:16:15.844Z,65.02
2018-07-16T21:18:44.546Z,65.13
2018-07-16T21:21:12.977Z,65.10
2018-07-16T21:23:41.350Z,66.46
2018-07-16T21:26:09.999Z,67.46
2018-07-16T21:28:38.406Z,68.77
2018-07-16T21:31:07.373Z,68.18
2018-07-16T21:33:35.720Z,68.70
2018-07-16T21:36:04.066Z,69.99
2018-07-16T21:38:32.598Z,69.19
2018-07-16T21:41:00.940Z,68.30
2018-07-16T21:43:29.394Z,67.66
2018-07-16T21:45:57.722Z,66.98
2018-07-16T21:48:26.181Z,67.48
2018-07-16T21:50:55.406Z,67.85
2018-07-16T21:53:23.798Z,70.28
2018-07-16T21:55:52.245Z,70.97
2018-07-16T21:58:20.599Z,70.60
2018-07-16T22:00:49.450Z,69.99
2018-07-16T22:03:17.780Z,71.85
2018-07-16T22:05:46.170Z,72.34
2018-07-16T22:08:15.525Z,72.89
2018-07-16T22:10:43.847Z,72.61
2018-07-16T22:13:12.383Z,72.62
2018-07-16T22:15:40.765Z,72.96
2018-07-16T22:18:09.101Z,72.50
2018-07-16T22:20:37.449Z,72.97
2018-07-16T22:23:05.871Z,72.21
2018-07-16T22:25:34.225Z,72.26
2018-07-16T22:28:02.654Z,72.42
2018-07-16T22:30:30.981Z,72.66
2018-07-16T22:32:59.424Z,73.08
2018-07-16T22:35:27.734Z,73.83
2018-07-16T22:37:56.087Z,74.17
2018-07-16T22:40:24.495Z,74.29
2018-07-16T22:42:52.929Z,73.43
2018-07-16T22:45:21.221Z,73.00
2018-07-16T22:47:49.833Z,73.46
2018-07-16T22:50:18.259Z,73.68
2018-07-16T22:52:46.687Z,74.03
2018-07-16T22:55:15.023Z,74.17
2018-07-16T22:57:43.359Z,75.32
2018-07-16T23:00:11.710Z,74.68
2018-07-16T23:02:40.134Z,74.44
2018-07-16T23:05:08.444Z,73.18
2018-07-16T23:07:36.809Z,72.51
2018-07-16T23:10:05.225Z,73.19
2018-07-16T23:12:33.726Z,74.17
2018-07-16T23:15:02.039Z,74.04
2018-07-16T23:17:30.383Z,74.94
2018-07-16T23:19:58.707Z,76.65
2018-07-16T23:22:27.231Z,76.27
2018-07-16T23:24:55.639Z,77.01
2018-07-16T23:27:23.989Z,77.60
2018-07-16T23:29:52.331Z,77.23
2018-07-16T23:32:21.359Z,76.34
2018-07-16T23:34:49.686Z,76.16
2018-07-16T23:37:18.050Z,75.87
2018-07-16T23:39:46.476Z,75.41
2018-07-16T23:42:14.771Z,76.11
2018-07-16T23:44:43.125Z,74.61
2018-07-16T23:47:11.452Z,74.20
2018-07-16T23:49:39.855Z,74.44
2018-07-16T23:52:08.211Z,74.99
2018-07-16T23:54:36.621Z,76.31
2018-07-16T23:57:05.059Z,77.67
2018-07-16T23:59:33.415Z,78.78
